Time;durP1;ratioP1;P1;durP2;ratioP2;P2;SDS_P1;SDS_P2;PMS_P1;PMS_P2;Temp;Humidity;BMP_temperature;BMP_pressure;BME280_temperature;BME280_humidity;BME280_pressure;Samples;Min_cycle;Max_cycle;Signal;HPM_P1;HPM_P2
2020/12/14 00:00:30;;;;;;;20.92;13.48;;;;;;;6.90;67.94;94595.13;5092265;28;20183;-74
2020/12/14 00:03:00;;;;;;;21.63;13.35;;;;;;;6.75;68.58;94586.31;5092462;28;20203;-67
2020/12/14 00:05:26;;;;;;;20.65;13.48;;;;;;;6.80;68.43;94584.59;5089762;28;20179;-70
2020/12/14 00:07:52;;;;;;;20.42;14.05;;;;;;;6.76;68.67;94588.69;5091726;28;20600;-73
2020/12/14 00:10:20;;;;;;;22.05;13.57;;;;;;;6.68;68.72;94589.09;5091873;28;20562;-67
2020/12/14 00:12:47;;;;;;;19.45;13.52;;;;;;;6.63;69.11;94594.22;5092270;28;20188;-74
2020/12/14 00:15:13;;;;;;;21.65;14.00;;;;;;;6.53;69.85;94607.06;5094215;28;20213;-68
2020/12/14 00:17:39;;;;;;;22.25;13.80;;;;;;;6.67;69.41;94615.34;5100976;28;20200;-71
2020/12/14 00:20:06;;;;;;;19.83;13.77;;;;;;;6.79;68.77;94611.63;5093049;28;20248;-72
2020/12/14 00:22:34;;;;;;;21.63;13.93;;;;;;;6.89;68.62;94621.41;5091818;28;20210;-71
2020/12/14 00:25:01;;;;;;;19.88;13.32;;;;;;;6.55;69.53;94618.03;5092012;28;20188;-67
2020/12/14 00:27:28;;;;;;;20.77;13.23;;;;;;;6.71;69.14;94611.25;5092511;28;20223;-66
2020/12/14 00:29:54;;;;;;;18.92;12.80;;;;;;;6.54;69.25;94621.66;5091921;28;20327;-72
2020/12/14 00:32:22;;;;;;;19.98;13.40;;;;;;;6.64;69.00;94611.41;5091500;28;20207;-68
2020/12/14 00:34:48;;;;;;;20.55;13.43;;;;;;;6.79;68.48;94614.25;5091811;28;20950;-67
2020/12/14 00:37:15;;;;;;;20.25;13.23;;;;;;;6.81;69.00;94609.59;5091450;28;20192;-70
2020/12/14 00:39:41;;;;;;;20.90;12.82;;;;;;;6.94;68.08;94617.06;5091471;28;20194;-67
2020/12/14 00:42:08;;;;;;;19.98;12.95;;;;;;;6.83;67.97;94615.34;5091629;28;20258;-70
2020/12/14 00:44:34;;;;;;;20.35;13.25;;;;;;;6.98;68.33;94631.19;5091279;28;20685;-67
2020/12/14 00:47:01;;;;;;;21.60;13.68;;;;;;;7.02;67.83;94626.28;5091546;28;20223;-74
2020/12/14 00:49:28;;;;;;;21.73;13.85;;;;;;;6.69;67.88;94613.31;5091616;28;20248;-64
2020/12/14 00:51:54;;;;;;;21.23;13.95;;;;;;;6.54;69.21;94642.50;5093738;28;20709;-72
2020/12/14 00:54:22;;;;;;;26.02;13.75;;;;;;;6.52;69.34;94638.53;5094546;28;20566;-71
2020/12/14 00:56:48;;;;;;;22.40;14.13;;;;;;;6.40;69.49;94625.63;5094975;28;20611;-69
2020/12/14 00:59:15;;;;;;;25.90;14.15;;;;;;;6.55;69.34;94633.66;5094544;28;20656;-67
2020/12/14 01:01:41;;;;;;;21.55;14.43;;;;;;;6.54;69.40;94632.09;5096142;28;20282;-69
2020/12/14 01:04:08;;;;;;;20.65;14.05;;;;;;;6.62;68.89;94636.13;5094431;28;20273;-66
2020/12/14 01:06:35;;;;;;;25.58;13.43;;;;;;;6.72;69.22;94644.88;5093257;28;20580;-75
2020/12/14 01:09:02;;;;;;;22.35;14.38;;;;;;;6.37;69.62;94641.69;5091430;28;20179;-69
2020/12/14 01:11:29;;;;;;;20.90;13.70;;;;;;;6.27;69.81;94641.53;5091394;28;20205;-67
2020/12/14 01:13:55;;;;;;;21.00;14.02;;;;;;;6.21;70.00;94632.06;5090661;28;20200;-68
2020/12/14 01:16:22;;;;;;;21.27;14.02;;;;;;;6.24;69.91;94655.00;5091313;28;20248;-74
2020/12/14 01:18:49;;;;;;;23.20;13.73;;;;;;;6.41;69.32;94650.59;5091446;28;20236;-72
2020/12/14 01:21:24;;;;;;;24.27;13.60;;;;;;;6.35;69.84;94659.34;5091116;28;20200;-72
2020/12/14 01:23:51;;;;;;;25.23;14.63;;;;;;;6.48;69.17;94669.47;5087305;28;20191;-66
2020/12/14 01:26:19;;;;;;;22.48;14.25;;;;;;;6.19;69.67;94657.50;5091099;28;20269;-67
2020/12/14 01:28:45;;;;;;;20.95;13.70;;;;;;;6.43;69.23;94677.19;5090157;28;20305;-67
2020/12/14 01:31:12;;;;;;;23.20;13.63;;;;;;;6.38;69.19;94674.50;5090664;28;20274;-68
2020/12/14 01:33:39;;;;;;;21.17;13.30;;;;;;;6.37;68.92;94678.13;5090029;28;20284;-67
2020/12/14 01:36:06;;;;;;;21.17;14.18;;;;;;;6.53;68.94;94676.56;5090712;28;20202;-68
2020/12/14 01:38:33;;;;;;;22.65;14.60;;;;;;;6.47;69.15;94667.88;5090366;28;20225;-68
2020/12/14 01:41:00;;;;;;;20.60;13.25;;;;;;;6.41;69.40;94676.63;5091074;28;20302;-68
2020/12/14 01:43:27;;;;;;;19.67;13.07;;;;;;;6.28;69.61;94676.91;5087687;28;20193;-72
2020/12/14 01:45:54;;;;;;;19.27;13.30;;;;;;;6.13;70.02;94671.47;5091453;28;20187;-67
2020/12/14 01:48:23;;;;;;;19.65;12.45;;;;;;;5.90;70.64;94672.34;5105876;28;20230;-69
2020/12/14 01:50:52;;;;;;;20.70;13.40;;;;;;;5.97;70.69;94672.19;5095583;28;20259;-64
2020/12/14 01:53:21;;;;;;;21.52;14.05;;;;;;;6.24;70.40;94682.84;5089938;28;20183;-66
2020/12/14 01:55:53;;;;;;;19.98;13.10;;;;;;;6.14;70.05;94678.22;5087624;28;20273;-71
2020/12/14 01:58:21;;;;;;;21.58;13.50;;;;;;;6.06;70.67;94676.00;5090280;28;20274;-65
2020/12/14 02:00:48;;;;;;;20.08;13.43;;;;;;;6.25;70.19;94674.78;5088323;28;20565;-68
2020/12/14 02:03:14;;;;;;;22.15;13.93;;;;;;;6.17;70.01;94682.19;5089978;28;20295;-67
2020/12/14 02:05:41;;;;;;;22.60;13.30;;;;;;;6.11;70.38;94686.50;5090086;28;20187;-65
2020/12/14 02:08:08;;;;;;;20.70;13.45;;;;;;;6.16;70.29;94681.41;5089059;28;20222;-67
2020/12/14 02:10:35;;;;;;;22.98;13.82;;;;;;;5.73;71.34;94687.03;5089570;28;20732;-68
2020/12/14 02:13:02;;;;;;;22.98;13.68;;;;;;;5.72;71.59;94685.47;5090348;28;20196;-69
2020/12/14 02:15:28;;;;;;;22.65;13.90;;;;;;;5.89;70.37;94664.78;5086789;28;20184;-66
2020/12/14 02:17:54;;;;;;;21.63;13.38;;;;;;;5.90;71.02;94671.53;5089462;28;20633;-72
2020/12/14 02:20:21;;;;;;;21.27;13.55;;;;;;;5.57;72.14;94692.16;5089220;28;20222;-71
2020/12/14 02:22:47;;;;;;;24.92;14.68;;;;;;;5.85;71.60;94687.06;5088209;28;20219;-72
2020/12/14 02:25:14;;;;;;;20.08;13.27;;;;;;;5.60;72.12;94682.09;5089130;28;20187;-74
2020/12/14 02:27:40;;;;;;;22.40;13.52;;;;;;;5.94;71.42;94676.06;5089410;28;20685;-69
2020/12/14 02:30:07;;;;;;;20.48;13.48;;;;;;;6.00;71.13;94671.75;5089368;28;20661;-68
2020/12/14 02:32:35;;;;;;;19.50;12.95;;;;;;;6.06;70.75;94670.78;5090044;28;20591;-70
2020/12/14 02:35:01;;;;;;;21.15;13.25;;;;;;;6.12;70.36;94672.47;5089779;28;20226;-73
2020/12/14 02:37:29;;;;;;;23.02;13.68;;;;;;;5.99;70.09;94651.94;5089616;28;20198;-68
2020/12/14 02:39:56;;;;;;;20.67;12.80;;;;;;;6.05;70.24;94662.22;5089688;28;20195;-66
2020/12/14 02:42:25;;;;;;;22.08;12.48;;;;;;;6.17;70.19;94677.75;5090107;28;20210;-69
2020/12/14 02:44:52;;;;;;;19.38;12.43;;;;;;;6.01;70.59;94678.50;5086783;28;20657;-72
2020/12/14 02:47:19;;;;;;;20.58;12.48;;;;;;;5.58;70.86;94652.19;5089439;28;20291;-72
2020/12/14 02:49:47;;;;;;;17.88;11.35;;;;;;;5.86;71.01;94680.81;5089296;28;20206;-68
2020/12/14 02:52:14;;;;;;;20.55;11.73;;;;;;;5.90;70.70;94663.72;5089333;28;20219;-70
2020/12/14 02:54:42;;;;;;;21.00;11.93;;;;;;;5.96;70.62;94670.63;5089561;28;20206;-73
2020/12/14 02:57:10;;;;;;;19.60;12.23;;;;;;;6.09;70.07;94675.53;5089468;28;20191;-71
2020/12/14 02:59:36;;;;;;;17.27;11.45;;;;;;;6.21;69.61;94678.88;5089268;28;20228;-67
2020/12/14 03:02:03;;;;;;;19.70;12.05;;;;;;;5.98;70.12;94678.97;5089796;28;20914;-69
2020/12/14 03:04:30;;;;;;;18.35;11.52;;;;;;;6.06;69.56;94670.78;5089147;28;20191;-71
2020/12/14 03:06:57;;;;;;;21.05;12.35;;;;;;;6.11;70.03;94673.50;5088921;28;20214;-65
2020/12/14 03:09:24;;;;;;;19.90;12.45;;;;;;;5.84;70.36;94677.66;5088753;28;20645;-68
2020/12/14 03:11:51;;;;;;;20.38;12.95;;;;;;;5.67;71.53;94682.00;5089257;28;20274;-65
2020/12/14 03:14:18;;;;;;;19.52;10.80;;;;;;;5.54;71.28;94682.22;5088774;28;20187;-68
2020/12/14 03:16:47;;;;;;;20.75;12.88;;;;;;;5.44;71.82;94679.44;5088692;28;20665;-69
2020/12/14 03:19:13;;;;;;;20.90;13.07;;;;;;;5.78;70.91;94674.16;5088299;28;20234;-67
2020/12/14 03:21:41;;;;;;;19.67;12.57;;;;;;;5.67;71.28;94674.19;5097140;28;20222;-64
2020/12/14 03:24:08;;;;;;;20.42;10.80;;;;;;;5.37;71.55;94678.75;5093760;28;20295;-67
2020/12/14 03:26:35;;;;;;;18.25;11.98;;;;;;;5.44;71.88;94672.41;5089117;28;20729;-66
2020/12/14 03:29:02;;;;;;;22.20;12.82;;;;;;;5.65;71.32;94676.22;5088180;28;20246;-70
2020/12/14 03:31:29;;;;;;;19.13;11.50;;;;;;;5.67;71.34;94674.19;5088707;28;20191;-69
2020/12/14 03:33:55;;;;;;;20.48;12.38;;;;;;;5.49;71.57;94669.16;5087679;28;20226;-68
2020/12/14 03:36:22;;;;;;;19.58;11.88;;;;;;;5.55;71.74;94678.59;5089129;28;20256;-66
2020/12/14 03:38:51;;;;;;;19.77;12.70;;;;;;;5.74;71.04;94682.63;5088710;28;20231;-68
2020/12/14 03:41:18;;;;;;;19.40;12.23;;;;;;;5.43;71.66;94676.03;5089412;28;20202;-73
2020/12/14 03:43:44;;;;;;;19.67;12.10;;;;;;;5.54;71.13;94687.44;5088677;28;20188;-73
2020/12/14 03:46:15;;;;;;;18.88;11.15;;;;;;;5.33;72.17;94675.06;5088434;28;20214;-69
2020/12/14 03:48:42;;;;;;;19.00;12.00;;;;;;;5.17;72.57;94666.13;5088331;28;20223;-67
2020/12/14 03:51:13;;;;;;;19.50;12.18;;;;;;;5.33;72.32;94680.25;5088584;28;20192;-68
2020/12/14 03:53:43;;;;;;;19.38;12.32;;;;;;;5.45;72.02;94686.22;5088339;28;20738;-66
2020/12/14 03:56:10;;;;;;;19.88;12.00;;;;;;;5.26;72.81;94685.53;5088574;28;20241;-70
2020/12/14 03:58:36;;;;;;;22.45;13.15;;;;;;;5.14;72.85;94666.59;5088619;28;20195;-73
2020/12/14 04:01:05;;;;;;;20.00;12.48;;;;;;;5.20;72.74;94691.63;5088245;28;20669;-69
2020/12/14 04:03:31;;;;;;;21.13;12.57;;;;;;;5.18;72.88;94698.09;5088086;28;20187;-68
2020/12/14 04:05:58;;;;;;;21.15;12.35;;;;;;;4.92;73.68;94697.53;5088375;28;20658;-68
2020/12/14 04:08:25;;;;;;;22.13;13.30;;;;;;;5.00;73.70;94712.75;5087609;28;20642;-65
2020/12/14 04:10:52;;;;;;;20.85;12.98;;;;;;;4.97;73.83;94718.41;5087948;28;20252;-67
2020/12/14 04:13:19;;;;;;;22.98;12.98;;;;;;;5.11;72.84;94717.16;5088013;28;20194;-72
2020/12/14 04:15:45;;;;;;;20.77;12.98;;;;;;;5.06;73.34;94717.06;5088072;28;20259;-67
2020/12/14 04:18:11;;;;;;;22.13;12.52;;;;;;;5.18;72.74;94725.63;5088415;28;20191;-70
2020/12/14 04:20:38;;;;;;;22.75;12.70;;;;;;;4.81;73.86;94724.28;5087976;28;20191;-68
2020/12/14 04:23:04;;;;;;;20.92;12.82;;;;;;;5.08;72.68;94720.22;5087586;28;20188;-65
2020/12/14 04:25:30;;;;;;;20.10;12.27;;;;;;;5.35;72.22;94727.53;5087639;28;20240;-70
2020/12/14 04:27:59;;;;;;;20.80;12.20;;;;;;;5.46;71.93;94721.56;5088002;28;20222;-67
2020/12/14 04:30:29;;;;;;;20.45;12.38;;;;;;;5.40;71.67;94728.44;5087984;28;20650;-66
2020/12/14 04:32:57;;;;;;;19.30;12.00;;;;;;;5.10;72.63;94725.19;5091410;28;20222;-72
2020/12/14 04:35:25;;;;;;;18.00;11.85;;;;;;;5.45;71.37;94725.19;5091173;28;20222;-72
2020/12/14 04:37:52;;;;;;;18.35;12.18;;;;;;;5.51;71.10;94735.44;5091680;28;20179;-64
2020/12/14 04:40:20;;;;;;;20.23;11.63;;;;;;;5.64;70.78;94734.44;5091510;28;20187;-67
2020/12/14 04:42:51;;;;;;;18.52;11.70;;;;;;;5.58;71.01;94736.13;5091565;28;20187;-71
2020/12/14 04:45:19;;;;;;;22.77;12.13;;;;;;;5.51;70.94;94734.69;5091764;28;20195;-68
2020/12/14 04:47:48;;;;;;;21.08;11.43;;;;;;;5.37;71.21;94744.50;5091352;28;20306;-72
2020/12/14 04:50:16;;;;;;;20.38;11.82;;;;;;;5.31;71.19;94744.63;5091185;28;20203;-66
2020/12/14 04:52:42;;;;;;;18.52;12.00;;;;;;;5.52;70.89;94757.03;5091252;28;20279;-65
2020/12/14 04:55:11;;;;;;;18.95;11.27;;;;;;;5.67;70.61;94750.38;5101528;28;20522;-64
2020/12/14 04:57:38;;;;;;;22.63;11.88;;;;;;;5.62;70.32;94741.66;5091586;28;20254;-75
2020/12/14 05:00:08;;;;;;;18.55;11.38;;;;;;;5.78;70.07;94761.75;5091649;28;20340;-69
2020/12/14 05:02:34;;;;;;;19.98;11.05;;;;;;;5.68;70.20;94764.94;5091357;28;20533;-71
2020/12/14 05:05:01;;;;;;;19.48;11.55;;;;;;;5.70;70.01;94769.91;5091135;28;20199;-73
2020/12/14 05:07:41;;;;;;;20.05;11.23;;;;;;;5.48;70.45;94771.50;5091351;28;20214;-73
2020/12/14 05:10:09;;;;;;;16.25;11.15;;;;;;;5.44;71.02;94775.59;5090906;28;20194;-69
2020/12/14 05:12:43;;;;;;;17.65;10.27;;;;;;;5.62;70.29;94778.06;5090931;28;20187;-69
2020/12/14 05:15:24;;;;;;;17.52;11.15;;;;;;;5.55;70.36;94787.75;5088213;28;20263;-73
2020/12/14 05:17:52;;;;;;;18.88;11.63;;;;;;;5.78;69.76;94787.75;5080379;28;20569;-70
2020/12/14 05:20:20;;;;;;;19.05;11.38;;;;;;;5.64;69.80;94797.59;5090991;28;20653;-72
2020/12/14 05:22:58;;;;;;;22.17;11.90;;;;;;;5.43;70.56;94794.78;5090990;28;20211;-70
2020/12/14 05:25:25;;;;;;;22.80;11.50;;;;;;;5.55;70.25;94798.16;5090355;28;20222;-68
2020/12/14 05:28:14;;;;;;;18.60;11.43;;;;;;;5.18;70.60;94777.59;5090303;28;20327;-73
2020/12/14 05:30:48;;;;;;;17.45;10.35;;;;;;;5.35;70.65;94802.88;5089099;28;20286;-73
2020/12/14 05:33:17;;;;;;;16.45;10.88;;;;;;;5.23;70.77;94804.69;5088334;28;20246;-71
2020/12/14 05:35:45;;;;;;;20.30;11.00;;;;;;;5.28;71.00;94810.78;5090037;28;20203;-71
2020/12/14 05:38:26;;;;;;;17.55;11.02;;;;;;;5.60;70.17;94816.47;5088294;28;20183;-68
2020/12/14 05:41:05;;;;;;;19.42;10.82;;;;;;;5.60;69.48;94798.28;5088520;28;20183;-66
2020/12/14 05:43:33;;;;;;;18.27;11.43;;;;;;;5.43;70.06;94799.97;5086833;28;20179;-74
2020/12/14 05:46:17;;;;;;;21.73;11.85;;;;;;;5.47;70.21;94809.69;5090147;28;20289;-67
2020/12/14 05:48:43;;;;;;;20.67;11.07;;;;;;;5.75;69.59;94824.59;5086731;28;20291;-70
2020/12/14 05:51:10;;;;;;;17.20;10.25;;;;;;;5.57;69.59;94822.09;5090364;28;20613;-71
2020/12/14 05:53:49;;;;;;;18.20;11.10;;;;;;;5.59;69.51;94827.88;5089716;28;20192;-66
2020/12/14 05:56:17;;;;;;;19.40;10.88;;;;;;;5.46;70.04;94825.50;5087378;28;20187;-65
2020/12/14 05:58:44;;;;;;;15.20;10.38;;;;;;;5.60;69.61;94837.28;5089426;28;20416;-66
2020/12/14 06:01:10;;;;;;;19.45;11.40;;;;;;;5.72;69.19;94830.25;5089575;28;20187;-63
2020/12/14 06:03:37;;;;;;;16.55;10.35;;;;;;;5.76;68.69;94831.38;5089428;28;20191;-66
2020/12/14 06:06:06;;;;;;;16.80;11.13;;;;;;;5.61;69.20;94838.84;5090328;28;20242;-71
2020/12/14 06:08:44;;;;;;;16.73;9.80;;;;;;;5.18;70.40;94851.34;5086408;28;20559;-68
2020/12/14 06:11:15;;;;;;;19.58;11.20;;;;;;;5.31;70.42;94843.34;5089459;28;20198;-66
2020/12/14 06:13:55;;;;;;;21.40;11.57;;;;;;;5.29;70.71;94842.78;5089535;28;20560;-69
2020/12/14 06:16:25;;;;;;;18.55;11.15;;;;;;;5.54;69.72;94853.75;5087728;28;20240;-65
2020/12/14 06:18:52;;;;;;;19.10;11.80;;;;;;;5.39;70.29;94848.19;5088891;28;20198;-69
2020/12/14 06:21:29;;;;;;;21.23;12.90;;;;;;;5.48;70.19;94854.63;5089527;28;20223;-69
2020/12/14 06:23:59;;;;;;;23.08;12.07;;;;;;;5.42;70.62;94866.72;5086561;28;20209;-68
2020/12/14 06:26:26;;;;;;;23.75;12.90;;;;;;;5.48;70.07;94859.84;5089275;28;20187;-68
2020/12/14 06:28:54;;;;;;;20.27;12.38;;;;;;;5.41;69.86;94864.34;5087688;28;20321;-66
2020/12/14 06:31:40;;;;;;;22.52;12.93;;;;;;;5.15;71.27;94871.53;5089236;28;20199;-69
2020/12/14 06:34:45;;;;;;;21.10;12.75;;;;;;;5.15;71.09;94866.34;5087615;28;20237;-70
2020/12/14 06:37:19;;;;;;;17.48;12.05;;;;;;;5.24;71.03;94873.81;5066005;28;20557;-67
2020/12/14 06:39:56;;;;;;;20.08;12.20;;;;;;;5.18;70.86;94884.06;5065839;28;20202;-65
2020/12/14 06:42:24;;;;;;;20.15;11.43;;;;;;;4.87;71.55;94873.91;5078610;28;20203;-67
2020/12/14 06:44:54;;;;;;;22.23;12.45;;;;;;;5.34;70.49;94890.44;5088941;28;20241;-67
2020/12/14 06:47:20;;;;;;;22.48;12.60;;;;;;;5.36;70.41;94879.81;5088941;28;20605;-66
2020/12/14 06:49:47;;;;;;;20.52;11.95;;;;;;;5.27;70.28;94891.56;5088562;28;20183;-72
2020/12/14 06:52:35;;;;;;;27.45;11.88;;;;;;;5.13;70.75;94899.53;5089146;28;20195;-67
2020/12/14 06:55:02;;;;;;;20.52;12.00;;;;;;;5.35;70.49;94892.03;5087359;28;20223;-69
2020/12/14 06:57:39;;;;;;;25.33;13.02;;;;;;;5.22;70.58;94901.81;5088533;28;20191;-70
2020/12/14 07:00:07;;;;;;;26.30;13.63;;;;;;;5.21;70.72;94910.63;5088156;28;20195;-65
2020/12/14 07:02:40;;;;;;;21.73;12.73;;;;;;;5.13;70.95;94909.91;5088682;28;20557;-67
2020/12/14 07:05:28;;;;;;;23.52;12.93;;;;;;;4.95;71.27;94917.75;5083266;28;20203;-67
2020/12/14 07:07:55;;;;;;;22.27;12.45;;;;;;;4.78;72.11;94896.00;5086029;28;20214;-67
2020/12/14 07:10:27;;;;;;;22.73;12.30;;;;;;;4.74;72.21;94915.66;5087206;28;20183;-66
2020/12/14 07:12:57;;;;;;;23.48;12.68;;;;;;;5.01;71.83;94922.09;5076774;28;20187;-66
2020/12/14 07:15:38;;;;;;;21.58;13.52;;;;;;;5.24;70.91;94916.16;5086395;28;20219;-65
2020/12/14 07:18:11;;;;;;;25.50;13.50;;;;;;;5.25;70.95;94927.34;5087855;28;20215;-72
2020/12/14 07:20:56;;;;;;;24.30;14.15;;;;;;;5.26;72.19;94924.53;5086456;28;20618;-66
2020/12/14 07:23:24;;;;;;;24.63;14.85;;;;;;;4.99;72.00;94913.72;5084923;28;20247;-69
2020/12/14 07:25:55;;;;;;;53.47;34.50;;;;;;;5.39;71.72;94918.34;5084584;28;20594;-70
2020/12/14 07:28:37;;;;;;;39.70;24.67;;;;;;;5.57;70.51;94926.06;5085589;28;20199;-69
2020/12/14 07:31:10;;;;;;;25.35;15.10;;;;;;;5.48;70.10;94923.00;5086888;28;20219;-69
2020/12/14 07:33:38;;;;;;;26.23;15.43;;;;;;;5.59;70.32;94929.22;5084989;28;20252;-67
2020/12/14 07:36:07;;;;;;;24.90;15.13;;;;;;;5.39;70.48;94926.13;5087887;28;20901;-68
2020/12/14 07:38:42;;;;;;;24.33;13.90;;;;;;;5.47;70.70;94931.81;5084906;28;20270;-68
2020/12/14 07:41:09;;;;;;;30.20;18.02;;;;;;;5.60;71.35;94939.41;5087376;28;20195;-63
2020/12/14 07:43:45;;;;;;;33.53;18.95;;;;;;;5.61;71.83;94945.41;5087006;28;20195;-66
2020/12/14 07:46:20;;;;;;;22.92;13.63;;;;;;;5.58;70.88;94932.88;5084505;28;20633;-68
2020/12/14 07:48:58;;;;;;;23.70;14.43;;;;;;;5.33;71.24;94940.81;5086758;28;20219;-67
2020/12/14 07:51:26;;;;;;;21.88;12.90;;;;;;;5.39;71.52;94952.13;5086823;28;20191;-65
2020/12/14 07:54:03;;;;;;;22.67;13.40;;;;;;;5.10;71.80;94946.72;5084453;28;20175;-67
2020/12/14 07:56:30;;;;;;;22.08;13.70;;;;;;;5.38;72.11;94947.94;5086632;28;20220;-66
2020/12/14 07:58:57;;;;;;;33.72;17.88;;;;;;;5.38;72.42;94956.56;5086870;28;20241;-63
2020/12/14 08:01:23;;;;;;;24.33;15.68;;;;;;;5.58;71.73;94925.06;5087267;28;20194;-68
2020/12/14 08:03:50;;;;;;;23.92;14.10;;;;;;;5.49;72.36;94955.75;5087094;28;20192;-64
2020/12/14 08:06:19;;;;;;;24.48;14.65;;;;;;;5.35;73.21;94954.38;5089288;28;20653;-66
2020/12/14 08:08:48;;;;;;;21.65;14.27;;;;;;;5.44;73.02;94960.84;5090807;28;20246;-65
2020/12/14 08:11:19;;;;;;;24.98;14.25;;;;;;;5.56;72.83;94956.47;5088761;28;20187;-67
2020/12/14 08:13:51;;;;;;;22.67;14.15;;;;;;;5.41;72.88;94960.50;5090307;28;20294;-63
2020/12/14 08:16:20;;;;;;;25.13;14.10;;;;;;;5.07;73.77;94967.94;5088723;28;20666;-67
2020/12/14 08:18:48;;;;;;;24.17;14.52;;;;;;;5.02;74.07;94973.00;5090940;28;20286;-66
2020/12/14 08:21:23;;;;;;;24.35;14.77;;;;;;;4.85;74.63;94964.22;5088673;28;20210;-66
2020/12/14 08:23:50;;;;;;;24.83;15.68;;;;;;;4.93;75.33;94966.50;5090116;28;20298;-68
2020/12/14 08:26:24;;;;;;;26.75;14.88;;;;;;;4.79;75.32;94970.28;5089987;28;20928;-65
2020/12/14 08:28:59;;;;;;;26.23;15.43;;;;;;;5.02;75.00;94988.56;5089854;28;20246;-70
2020/12/14 08:31:26;;;;;;;25.08;15.38;;;;;;;5.35;74.67;94979.56;5090350;28;20195;-65
2020/12/14 08:33:56;;;;;;;24.33;15.70;;;;;;;5.21;74.47;94978.16;5089827;28;20223;-66
2020/12/14 08:36:25;;;;;;;32.00;17.38;;;;;;;5.32;75.21;94980.00;5090840;28;20203;-64
2020/12/14 08:38:52;;;;;;;29.05;17.70;;;;;;;5.34;74.51;94983.19;5090378;28;20207;-63
2020/12/14 08:41:21;;;;;;;26.35;16.83;;;;;;;4.99;75.32;94978.63;5090434;28;20217;-65
2020/12/14 08:43:48;;;;;;;28.10;18.10;;;;;;;5.05;75.09;94975.16;5089766;28;20274;-65
2020/12/14 08:46:18;;;;;;;26.02;16.58;;;;;;;5.24;75.41;94978.50;5087585;28;20187;-67
2020/12/14 08:48:59;;;;;;;30.55;18.08;;;;;;;5.55;75.04;94977.47;5089837;28;20214;-69
2020/12/14 08:51:31;;;;;;;32.08;17.85;;;;;;;5.65;74.62;94980.34;5089178;28;20188;-65
2020/12/14 08:54:17;;;;;;;28.35;16.88;;;;;;;5.47;74.76;94977.81;5087204;28;20204;-66
2020/12/14 08:56:45;;;;;;;27.30;17.60;;;;;;;5.61;74.95;94980.00;5088766;28;20187;-67
2020/12/14 08:59:16;;;;;;;26.65;17.10;;;;;;;5.57;74.86;94978.03;5089309;28;20673;-67
2020/12/14 09:02:04;;;;;;;26.90;16.38;;;;;;;5.52;74.40;94975.31;5089830;28;20179;-67
2020/12/14 09:04:35;;;;;;;22.17;14.07;;;;;;;5.78;73.58;94959.34;5088548;28;20235;-68
2020/12/14 09:07:01;;;;;;;22.30;13.35;;;;;;;5.94;73.18;94972.50;5090929;28;20200;-64
2020/12/14 09:09:30;;;;;;;40.78;26.65;;;;;;;5.75;74.01;94975.38;5088604;28;20217;-67
2020/12/14 09:11:57;;;;;;;21.42;14.40;;;;;;;5.37;74.24;94964.53;5089596;28;20187;-68
2020/12/14 09:14:31;;;;;;;21.17;12.75;;;;;;;5.49;73.86;94955.75;5088479;28;20201;-67
2020/12/14 09:17:00;;;;;;;20.85;12.40;;;;;;;5.49;74.10;94970.59;5087733;28;20665;-68
2020/12/14 09:19:33;;;;;;;18.70;11.20;;;;;;;5.48;73.81;94974.19;5087051;28;20207;-66
2020/12/14 09:22:01;;;;;;;19.02;10.80;;;;;;;5.47;73.41;94962.22;5091380;28;20733;-67
2020/12/14 09:24:32;;;;;;;14.07;9.48;;;;;;;5.67;72.91;94968.72;5091193;28;20195;-66
2020/12/14 09:27:19;;;;;;;19.60;10.13;;;;;;;5.76;72.92;94972.56;5090486;28;20223;-68
2020/12/14 09:29:46;;;;;;;17.65;9.90;;;;;;;5.58;73.01;94961.44;5090426;28;20290;-68
2020/12/14 09:32:13;;;;;;;20.30;11.75;;;;;;;5.84;73.11;94968.84;5090807;28;20179;-68
2020/12/14 09:34:41;;;;;;;19.35;10.90;;;;;;;6.09;72.63;94967.66;5090307;28;20238;-67
2020/12/14 09:37:08;;;;;;;16.52;10.45;;;;;;;5.93;72.53;94938.94;5090937;28;20184;-68
2020/12/14 09:39:35;;;;;;;16.27;9.82;;;;;;;6.05;72.87;94965.72;5089070;28;20190;-67
2020/12/14 09:42:03;;;;;;;17.23;10.18;;;;;;;5.93;71.45;94972.75;5090729;28;20191;-68
2020/12/14 09:44:31;;;;;;;15.23;9.10;;;;;;;6.13;72.06;94965.41;5090515;28;20680;-68
2020/12/14 09:47:04;;;;;;;16.73;11.40;;;;;;;6.14;72.43;94966.97;5091042;28;20191;-69
2020/12/14 09:49:30;;;;;;;17.55;11.10;;;;;;;5.99;72.73;94962.22;5089944;28;20239;-68
2020/12/14 09:51:57;;;;;;;20.63;11.25;;;;;;;6.12;72.32;94963.81;5090296;28;20290;-68
2020/12/14 09:54:23;;;;;;;18.88;11.18;;;;;;;5.80;72.61;94952.13;5088247;28;20199;-68
2020/12/14 09:56:50;;;;;;;19.05;10.82;;;;;;;5.93;72.21;94972.75;5089723;28;20199;-68
2020/12/14 09:59:16;;;;;;;16.45;9.77;;;;;;;5.96;71.95;94967.09;5089300;28;20756;-68
2020/12/14 10:01:43;;;;;;;144.15;101.70;;;;;;;5.64;72.60;94963.16;5089385;28;20199;-76
2020/12/14 10:04:12;;;;;;;25.40;15.75;;;;;;;5.69;72.18;94965.88;5090488;28;20202;-68
2020/12/14 10:06:39;;;;;;;46.70;28.20;;;;;;;5.74;72.37;94953.81;5091560;28;20278;-68
2020/12/14 10:09:05;;;;;;;14.00;8.68;;;;;;;5.68;72.11;94959.09;5090223;28;20680;-69
2020/12/14 10:11:34;;;;;;;14.43;9.55;;;;;;;5.89;71.96;94963.81;5089414;28;20641;-68
2020/12/14 10:14:01;;;;;;;15.63;9.38;;;;;;;5.80;72.13;94962.50;5089820;28;20199;-66
2020/12/14 10:16:27;;;;;;;17.02;10.15;;;;;;;5.41;72.87;94970.88;5090064;28;20230;-69
2020/12/14 10:19:10;;;;;;;14.73;9.60;;;;;;;5.73;73.24;94948.84;5089553;28;20199;-69
2020/12/14 10:21:37;;;;;;;16.98;10.55;;;;;;;5.95;73.21;94949.88;5090213;28;20287;-71
2020/12/14 10:24:04;;;;;;;15.38;9.38;;;;;;;6.00;72.68;94958.59;5089396;28;20211;-66
2020/12/14 10:26:30;;;;;;;17.38;9.90;;;;;;;5.97;72.39;94958.25;5089712;28;20190;-72
2020/12/14 10:28:57;;;;;;;17.48;9.30;;;;;;;6.00;72.67;94957.81;5088224;28;20261;-69
2020/12/14 10:31:23;;;;;;;17.85;8.98;;;;;;;5.72;72.55;94965.44;5089540;28;20213;-70
2020/12/14 10:33:50;;;;;;;12.18;8.48;;;;;;;5.38;73.01;94964.34;5089421;28;20614;-68
2020/12/14 10:36:18;;;;;;;11.10;7.63;;;;;;;5.09;73.73;94965.91;5089608;28;20251;-69
2020/12/14 10:38:46;;;;;;;14.45;8.80;;;;;;;5.14;74.28;94958.28;5088918;28;20649;-69
2020/12/14 10:41:17;;;;;;;15.13;8.60;;;;;;;5.56;74.29;94966.06;5088937;28;20746;-67
2020/12/14 10:43:44;;;;;;;15.48;9.02;;;;;;;5.60;73.76;94962.03;5089037;28;20211;-66
2020/12/14 10:46:11;;;;;;;17.38;9.85;;;;;;;5.70;73.18;94967.47;5089500;28;20206;-70
2020/12/14 10:48:39;;;;;;;15.00;8.48;;;;;;;5.73;72.99;94957.41;5088869;28;21063;-69
2020/12/14 10:51:05;;;;;;;16.45;9.68;;;;;;;5.64;72.84;94952.78;5088449;28;20652;-67
2020/12/14 10:53:31;;;;;;;15.80;9.05;;;;;;;5.49;73.53;94955.00;5088839;28;20732;-70
2020/12/14 10:55:59;;;;;;;15.63;9.88;;;;;;;5.65;73.68;94957.75;5088988;28;20563;-68
2020/12/14 10:58:25;;;;;;;17.08;10.63;;;;;;;5.80;73.77;94952.88;5088215;28;20183;-65
2020/12/14 11:00:54;;;;;;;31.95;11.60;;;;;;;5.70;73.76;94938.88;5086604;28;20613;-69
2020/12/14 11:03:31;;;;;;;20.33;11.65;;;;;;;5.81;73.14;94956.28;5088208;28;20191;-67
2020/12/14 11:05:57;;;;;;;21.70;11.50;;;;;;;5.84;73.55;94958.47;5089335;28;20187;-67
2020/12/14 11:08:27;;;;;;;18.38;11.90;;;;;;;6.02;73.10;94971.41;5088732;28;20211;-66
2020/12/14 11:10:54;;;;;;;17.08;11.18;;;;;;;6.15;72.71;94960.75;5087628;28;20239;-66
2020/12/14 11:13:20;;;;;;;39.42;26.15;;;;;;;5.91;73.81;94938.38;5088460;28;20210;-66
2020/12/14 11:15:47;;;;;;;24.48;14.77;;;;;;;6.08;72.71;94962.66;5088694;28;20638;-68
2020/12/14 11:18:14;;;;;;;20.17;10.65;;;;;;;5.77;73.37;94942.16;5089364;28;20226;-68
2020/12/14 11:20:40;;;;;;;20.15;11.05;;;;;;;5.43;73.80;94961.06;5088700;28;20209;-66
2020/12/14 11:23:07;;;;;;;16.80;9.90;;;;;;;5.25;73.95;94977.50;5089008;28;20217;-64
2020/12/14 11:25:33;;;;;;;18.65;10.45;;;;;;;5.33;74.63;94958.22;5089258;28;20198;-66
2020/12/14 11:28:00;;;;;;;17.60;10.88;;;;;;;5.71;74.01;94969.06;5088370;28;20218;-69
2020/12/14 11:30:28;;;;;;;18.38;11.55;;;;;;;5.55;74.32;94969.66;5088175;28;20342;-68
2020/12/14 11:32:54;;;;;;;15.50;10.73;;;;;;;5.64;74.27;94963.16;5088655;28;20648;-69
2020/12/14 11:35:21;;;;;;;19.73;11.25;;;;;;;5.71;74.01;94959.44;5088388;28;20203;-63